createdAt,value
2023-03-02T00:02:22.351Z,1.20
2023-03-02T00:05:10.738Z,1.20
2023-03-02T00:07:59.122Z,1.10
2023-03-02T00:10:45.668Z,1.10
2023-03-02T00:13:35.221Z,1.10
2023-03-02T00:16:23.132Z,1.10
2023-03-02T00:19:09.474Z,1.10
2023-03-02T00:21:56.262Z,1.10
2023-03-02T00:24:42.660Z,1.10
2023-03-02T00:27:30.033Z,1.10
2023-03-02T00:30:17.542Z,1.10
2023-03-02T00:33:05.399Z,1.00
2023-03-02T00:35:52.157Z,0.80
2023-03-02T00:38:38.568Z,0.90
2023-03-02T00:41:24.917Z,0.80
2023-03-02T00:44:17.419Z,0.80
2023-03-02T00:47:04.090Z,0.70
2023-03-02T00:49:51.750Z,0.60
2023-03-02T00:52:38.382Z,0.60
2023-03-02T00:55:24.854Z,0.60
2023-03-02T00:58:11.175Z,0.60
2023-03-02T01:00:57.850Z,0.50
2023-03-02T01:03:44.474Z,0.40
2023-03-02T01:06:32.877Z,0.50
2023-03-02T01:09:19.742Z,0.40
2023-03-02T01:12:09.326Z,0.40
2023-03-02T01:14:55.983Z,0.30
2023-03-02T01:17:43.862Z,0.20
2023-03-02T01:20:30.708Z,0.20
2023-03-02T01:23:18.785Z,0.10
2023-03-02T01:26:05.662Z,0.10
2023-03-02T01:28:55.317Z,0.10
2023-03-02T01:31:41.756Z,0.10
2023-03-02T01:34:28.149Z,0.10
2023-03-02T01:37:14.579Z,0.10
2023-03-02T01:40:06.734Z,0.10
2023-03-02T01:42:58.259Z,0.10
2023-03-02T01:45:54.183Z,0.10
2023-03-02T01:48:45.955Z,0.10
2023-03-02T01:51:36.354Z,0.10
2023-03-02T01:54:24.556Z,0.00
2023-03-02T01:57:13.126Z,0.00
2023-03-02T02:00:06.938Z,-0.10
2023-03-02T02:02:54.812Z,0.00
2023-03-02T02:05:43.967Z,0.00
2023-03-02T02:08:30.531Z,0.00
2023-03-02T02:11:17.195Z,0.00
2023-03-02T02:14:05.371Z,-0.10
2023-03-02T02:16:52.968Z,-0.10
2023-03-02T02:19:54.631Z,-0.20
2023-03-02T02:22:51.309Z,-0.20
2023-03-02T02:25:46.489Z,-0.20
2023-03-02T02:28:38.252Z,-0.30
2023-03-02T02:31:29.105Z,-0.40
2023-03-02T02:34:22.391Z,-0.40
2023-03-02T02:37:14.936Z,-0.30
2023-03-02T02:40:07.135Z,-0.40
2023-03-02T02:42:54.963Z,-0.40
2023-03-02T02:45:43.530Z,-0.40
2023-03-02T02:48:31.999Z,-0.50
2023-03-02T02:51:22.617Z,-0.50
2023-03-02T02:54:16.077Z,-0.50
2023-03-02T02:57:04.868Z,-0.60
2023-03-02T02:59:55.316Z,-0.60
2023-03-02T03:02:48.014Z,-0.60
2023-03-02T03:05:34.807Z,-0.70
2023-03-02T03:08:56.890Z,-0.80
2023-03-02T03:11:47.520Z,-0.80
2023-03-02T03:14:37.082Z,-0.90
2023-03-02T03:17:23.851Z,-0.90
2023-03-02T03:20:16.999Z,-0.90
2023-03-02T03:23:03.613Z,-0.90
2023-03-02T03:25:50.242Z,-0.90
2023-03-02T03:28:37.157Z,-1.00
2023-03-02T03:31:23.517Z,-1.00
2023-03-02T03:34:10.737Z,-1.00
2023-03-02T03:37:01.737Z,-0.90
2023-03-02T03:39:48.396Z,-1.00
2023-03-02T03:42:34.749Z,-1.00
2023-03-02T03:45:21.306Z,-1.10
2023-03-02T03:48:08.017Z,-1.20
2023-03-02T03:50:54.926Z,-1.20
2023-03-02T03:53:42.689Z,-1.30
2023-03-02T03:56:30.998Z,-1.40
2023-03-02T03:59:19.940Z,-1.40
2023-03-02T04:02:06.370Z,-1.50
2023-03-02T04:04:52.881Z,-1.50
2023-03-02T04:07:40.665Z,-1.50
2023-03-02T04:10:29.046Z,-1.50
2023-03-02T04:13:16.134Z,-1.50
2023-03-02T04:16:02.960Z,-1.60
2023-03-02T04:18:49.264Z,-1.60
2023-03-02T04:21:35.800Z,-1.60
2023-03-02T04:24:24.011Z,-1.60
2023-03-02T04:27:11.835Z,-1.70
2023-03-02T04:29:58.187Z,-1.70
2023-03-02T04:32:44.886Z,-1.80
2023-03-02T04:35:31.691Z,-1.80
2023-03-02T04:38:18.096Z,-1.90
2023-03-02T04:41:04.596Z,-1.90
2023-03-02T04:43:52.489Z,-1.90
2023-03-02T04:46:39.906Z,-1.70
2023-03-02T04:49:27.146Z,-1.60
2023-03-02T04:52:14.021Z,-1.50
2023-03-02T04:55:00.539Z,-1.60
2023-03-02T04:57:46.958Z,-1.70
2023-03-02T05:00:35.296Z,-1.70
2023-03-02T05:03:21.619Z,-1.60
2023-03-02T05:06:08.652Z,-1.60
2023-03-02T05:08:55.300Z,-1.60
2023-03-02T05:11:42.381Z,-1.60
2023-03-02T05:14:30.009Z,-1.60
2023-03-02T05:17:17.935Z,-1.70
2023-03-02T05:20:07.157Z,-1.70
2023-03-02T05:22:54.162Z,-1.80
2023-03-02T05:25:40.840Z,-1.90
2023-03-02T05:28:28.506Z,-1.80
2023-03-02T05:31:20.002Z,-1.70
2023-03-02T05:34:10.563Z,-1.70
2023-03-02T05:36:58.160Z,-1.50
2023-03-02T05:39:44.711Z,-1.40
2023-03-02T05:42:31.213Z,-1.50
2023-03-02T05:45:21.416Z,-1.60
2023-03-02T05:48:08.527Z,-1.70
2023-03-02T05:50:56.800Z,-1.80
2023-03-02T05:53:43.136Z,-1.80
2023-03-02T05:56:29.393Z,-1.90
2023-03-02T05:59:15.791Z,-2.00
2023-03-02T06:02:02.609Z,-2.00
2023-03-02T06:04:49.161Z,-2.00
2023-03-02T06:07:37.090Z,-2.00
2023-03-02T06:10:24.028Z,-2.00
2023-03-02T06:13:10.326Z,-2.00
2023-03-02T06:15:56.925Z,-2.00
2023-03-02T06:18:43.712Z,-1.80
2023-03-02T06:21:30.129Z,-1.60
2023-03-02T06:24:17.805Z,-1.50
2023-03-02T06:27:04.273Z,-1.40
2023-03-02T06:29:50.799Z,-1.30
2023-03-02T06:32:37.187Z,-1.20
2023-03-02T06:35:24.869Z,-1.10
2023-03-02T06:38:11.662Z,-0.90
2023-03-02T06:40:59.475Z,-0.70
2023-03-02T06:43:46.588Z,-0.40
2023-03-02T06:46:33.400Z,-0.30
2023-03-02T06:49:19.862Z,-0.10
2023-03-02T06:52:07.250Z,0.10
2023-03-02T06:54:53.999Z,0.30
2023-03-02T06:57:41.824Z,0.40
2023-03-02T07:00:29.188Z,0.60
2023-03-02T07:03:15.762Z,0.90
2023-03-02T07:06:02.330Z,1.20
2023-03-02T07:11:36.006Z,1.80
2023-03-02T07:14:23.855Z,2.10
2023-03-02T07:17:10.398Z,2.30
2023-03-02T07:19:56.724Z,2.60
2023-03-02T07:22:43.969Z,2.80
2023-03-02T07:25:30.690Z,3.00
2023-03-02T07:28:17.086Z,3.20
2023-03-02T07:31:04.873Z,3.40
2023-03-02T07:33:51.083Z,3.60
2023-03-02T07:36:37.482Z,3.80
2023-03-02T07:39:23.756Z,3.90
2023-03-02T07:42:11.736Z,4.10
2023-03-02T07:44:58.116Z,4.20
2023-03-02T07:47:45.902Z,4.40
2023-03-02T07:50:32.510Z,4.40
2023-03-02T07:53:19.029Z,4.60
2023-03-02T07:56:10.176Z,4.70
2023-03-02T07:58:56.574Z,4.70
2023-03-02T08:01:42.795Z,4.80
2023-03-02T08:04:30.526Z,4.80
2023-03-02T08:07:17.218Z,4.90
2023-03-02T08:10:04.169Z,5.10
2023-03-02T08:12:50.635Z,5.10
2023-03-02T08:15:37.054Z,5.20
2023-03-02T08:18:23.407Z,5.40
2023-03-02T08:21:15.331Z,5.50
2023-03-02T08:24:01.917Z,5.50
2023-03-02T08:26:48.417Z,5.50
2023-03-02T08:29:34.753Z,5.10
2023-03-02T08:32:21.340Z,5.10
2023-03-02T08:35:09.529Z,5.30
2023-03-02T08:37:59.590Z,5.30
2023-03-02T08:40:45.839Z,5.50
2023-03-02T08:43:32.356Z,5.60
2023-03-02T08:46:21.290Z,5.70
2023-03-02T08:49:07.602Z,5.60
2023-03-02T08:51:56.282Z,5.50
2023-03-02T08:54:44.373Z,5.40
2023-03-02T08:57:30.820Z,5.50
2023-03-02T09:00:18.640Z,5.50
2023-03-02T09:03:05.061Z,6.00
2023-03-02T09:05:51.543Z,6.10
2023-03-02T09:08:38.039Z,6.00
2023-03-02T09:11:26.229Z,5.90
2023-03-02T09:14:13.010Z,5.80
2023-03-02T09:17:00.406Z,5.70
2023-03-02T09:19:47.137Z,5.80
2023-03-02T09:22:35.809Z,6.20
2023-03-02T09:25:22.325Z,6.30
2023-03-02T09:28:10.048Z,6.60
2023-03-02T09:30:59.823Z,6.50
2023-03-02T09:33:46.467Z,6.60
2023-03-02T09:36:32.871Z,6.40
2023-03-02T09:39:19.499Z,6.40
2023-03-02T09:42:25.457Z,6.60
2023-03-02T09:45:31.031Z,7.00
2023-03-02T09:48:25.657Z,7.30
2023-03-02T09:51:24.146Z,7.20
2023-03-02T09:54:12.435Z,7.30
2023-03-02T09:57:00.498Z,7.40
2023-03-02T09:59:52.813Z,7.40
2023-03-02T10:02:47.543Z,7.30
2023-03-02T10:05:40.338Z,7.00
2023-03-02T10:08:29.954Z,6.90
2023-03-02T10:11:23.511Z,7.10
2023-03-02T10:14:16.202Z,7.10
2023-03-02T10:17:20.582Z,7.00
2023-03-02T10:20:18.040Z,7.00
2023-03-02T10:23:18.455Z,7.10
2023-03-02T10:26:15.621Z,7.10
2023-03-02T10:29:11.653Z,6.90
2023-03-02T10:32:01.917Z,6.60
2023-03-02T10:34:49.984Z,6.60
2023-03-02T10:37:37.535Z,6.60
2023-03-02T10:40:38.944Z,6.70
2023-03-02T10:43:31.711Z,6.80
2023-03-02T10:46:18.161Z,6.90
2023-03-02T10:49:04.493Z,6.90
2023-03-02T10:51:57.675Z,6.70
2023-03-02T10:54:47.356Z,6.60
2023-03-02T10:57:38.038Z,6.50
2023-03-02T11:00:25.915Z,6.60
2023-03-02T11:03:23.128Z,6.30
2023-03-02T11:06:19.707Z,6.50
2023-03-02T11:09:08.302Z,6.60
2023-03-02T11:11:58.908Z,6.50
2023-03-02T11:14:45.597Z,6.30
2023-03-02T11:17:35.153Z,6.40
2023-03-02T11:20:26.276Z,6.40
2023-03-02T11:23:20.636Z,6.50
2023-03-02T11:26:12.370Z,6.50
2023-03-02T11:29:05.498Z,6.50
2023-03-02T11:31:55.520Z,6.60
2023-03-02T11:34:48.259Z,6.30
2023-03-02T11:37:40.799Z,6.50
2023-03-02T11:40:32.620Z,6.40
2023-03-02T11:43:19.237Z,6.40
2023-03-02T11:46:21.540Z,6.50
2023-03-02T11:49:16.325Z,6.60
2023-03-02T11:52:03.319Z,6.60
2023-03-02T11:54:54.770Z,6.60
2023-03-02T11:57:48.553Z,6.50
2023-03-02T12:00:37.602Z,6.40
2023-03-02T12:03:39.338Z,6.40
2023-03-02T12:06:35.433Z,6.50
2023-03-02T12:09:35.601Z,6.60
2023-03-02T12:12:41.847Z,6.70
2023-03-02T12:15:39.489Z,6.70
2023-03-02T12:18:48.841Z,6.60
2023-03-02T12:21:41.896Z,6.60
2023-03-02T12:24:30.561Z,6.90
2023-03-02T12:27:28.492Z,6.80
2023-03-02T12:30:28.600Z,6.80
2023-03-02T12:33:21.426Z,6.80
2023-03-02T12:36:15.659Z,6.80
2023-03-02T12:39:19.747Z,6.90
2023-03-02T12:42:33.128Z,6.90
2023-03-02T12:45:35.957Z,6.80
2023-03-02T12:48:28.478Z,6.90
2023-03-02T12:51:21.479Z,6.80
2023-03-02T12:54:14.821Z,6.90
2023-03-02T12:57:08.897Z,7.00
2023-03-02T12:59:58.037Z,7.00
2023-03-02T13:02:48.164Z,6.90
2023-03-02T13:05:36.398Z,6.90
2023-03-02T13:08:29.173Z,6.90
2023-03-02T13:11:23.597Z,6.80
2023-03-02T13:14:21.654Z,6.90
2023-03-02T13:17:21.037Z,6.80
2023-03-02T13:20:08.393Z,6.90
2023-03-02T13:22:55.616Z,6.90
2023-03-02T13:25:51.748Z,6.80
2023-03-02T13:28:40.000Z,6.70
2023-03-02T13:31:26.548Z,6.70
2023-03-02T13:34:22.653Z,6.70
2023-03-02T13:37:24.254Z,6.70
2023-03-02T13:40:32.210Z,6.80
2023-03-02T13:43:37.223Z,6.80
2023-03-02T13:46:29.824Z,6.80
2023-03-02T13:49:27.725Z,6.90
2023-03-02T13:52:19.664Z,6.90
2023-03-02T13:55:07.507Z,6.90
2023-03-02T13:57:55.345Z,6.70
2023-03-02T14:00:43.516Z,6.60
2023-03-02T14:03:31.935Z,6.60
2023-03-02T14:06:18.958Z,6.60
2023-03-02T14:09:05.791Z,6.60
2023-03-02T14:11:56.025Z,6.70
2023-03-02T14:14:44.483Z,6.70
2023-03-02T14:17:33.105Z,6.70
2023-03-02T14:20:21.352Z,6.70
2023-03-02T14:23:09.461Z,6.80
2023-03-02T14:25:57.429Z,6.80
2023-03-02T14:28:44.797Z,6.70
2023-03-02T14:31:31.848Z,6.70
2023-03-02T14:34:20.120Z,6.80
2023-03-02T14:37:08.782Z,6.70
2023-03-02T14:39:55.837Z,6.70
2023-03-02T14:42:42.184Z,6.70
2023-03-02T14:45:30.787Z,6.70
2023-03-02T14:48:17.644Z,6.70
2023-03-02T14:51:05.694Z,6.70
2023-03-02T14:53:53.863Z,6.60
2023-03-02T14:56:40.476Z,6.60
2023-03-02T14:59:26.915Z,6.60
2023-03-02T15:02:24.786Z,6.50
2023-03-02T15:05:12.519Z,6.50
2023-03-02T15:08:00.218Z,6.40
2023-03-02T15:10:47.786Z,6.20
2023-03-02T15:13:34.301Z,6.10
2023-03-02T15:16:21.163Z,6.00
2023-03-02T15:19:07.751Z,5.90
2023-03-02T15:21:54.439Z,5.90
2023-03-02T15:24:42.347Z,5.90
2023-03-02T15:27:28.798Z,5.80
2023-03-02T15:30:15.183Z,5.80
2023-03-02T15:33:01.797Z,5.80
2023-03-02T15:35:55.249Z,5.60
2023-03-02T15:38:41.778Z,5.60
2023-03-02T15:41:29.642Z,5.50
2023-03-02T15:44:21.673Z,5.60
2023-03-02T15:47:08.680Z,5.40
2023-03-02T15:49:55.006Z,5.30
2023-03-02T15:52:41.914Z,5.30
2023-03-02T15:55:28.357Z,5.30
2023-03-02T15:58:17.696Z,5.30
2023-03-02T16:01:08.809Z,5.20
2023-03-02T16:03:55.529Z,5.10
2023-03-02T16:06:42.100Z,5.00
2023-03-02T16:09:30.932Z,4.90
2023-03-02T16:12:17.830Z,4.90
2023-03-02T16:15:06.739Z,4.80
2023-03-02T16:17:53.398Z,4.70
2023-03-02T16:20:40.396Z,4.50
2023-03-02T16:23:26.673Z,4.40
2023-03-02T16:26:16.450Z,4.30
2023-03-02T16:29:03.325Z,4.30
2023-03-02T16:31:51.321Z,4.20
2023-03-02T16:34:37.971Z,4.10
2023-03-02T16:37:24.630Z,4.00
2023-03-02T16:40:12.923Z,3.90
2023-03-02T16:42:59.648Z,3.90
2023-03-02T16:45:47.620Z,3.80
2023-03-02T16:48:35.478Z,3.70
2023-03-02T16:51:22.635Z,3.60
2023-03-02T16:54:09.115Z,3.50
2023-03-02T16:56:55.644Z,3.40
2023-03-02T16:59:42.021Z,3.30
2023-03-02T17:02:29.246Z,3.20
2023-03-02T17:05:18.574Z,3.20
2023-03-02T17:08:10.001Z,3.10
2023-03-02T17:10:56.772Z,3.00
2023-03-02T17:13:43.370Z,3.00
2023-03-02T17:16:30.134Z,3.00
2023-03-02T17:19:17.757Z,3.10
2023-03-02T17:22:08.457Z,3.10
2023-03-02T17:24:54.756Z,3.10
2023-03-02T17:27:41.263Z,3.00
2023-03-02T17:30:27.745Z,2.90
2023-03-02T17:33:14.479Z,2.90
2023-03-02T17:36:06.181Z,2.80
2023-03-02T17:38:54.397Z,2.80
2023-03-02T17:41:40.944Z,2.80
2023-03-02T17:44:27.500Z,2.70
2023-03-02T17:47:16.218Z,2.70
2023-03-02T17:50:04.558Z,2.60
2023-03-02T17:52:51.051Z,2.70
2023-03-02T17:55:39.434Z,2.50
2023-03-02T17:58:28.545Z,2.40
2023-03-02T18:01:22.905Z,2.40
2023-03-02T18:04:09.257Z,2.30
2023-03-02T18:06:55.795Z,2.30
2023-03-02T18:09:42.479Z,2.40
2023-03-02T18:12:30.394Z,2.30
2023-03-02T18:15:17.287Z,2.10
2023-03-02T18:18:03.769Z,2.20
2023-03-02T18:20:50.444Z,2.20
2023-03-02T18:23:37.279Z,2.10
2023-03-02T18:26:23.680Z,2.10
2023-03-02T18:29:11.797Z,2.00
2023-03-02T18:31:58.274Z,1.90
2023-03-02T18:34:44.580Z,1.90
2023-03-02T18:37:33.882Z,1.90
2023-03-02T18:40:20.485Z,2.00
2023-03-02T18:43:07.112Z,2.00
2023-03-02T18:45:56.773Z,2.00
2023-03-02T18:48:43.124Z,1.90
2023-03-02T18:51:29.587Z,1.80
2023-03-02T18:54:16.439Z,1.70
2023-03-02T18:57:03.536Z,1.60
2023-03-02T18:59:49.931Z,1.50
2023-03-02T19:02:37.626Z,1.50
2023-03-02T19:05:25.132Z,1.60
2023-03-02T19:08:11.723Z,1.50
2023-03-02T19:10:59.040Z,1.50
2023-03-02T19:13:45.627Z,1.50
2023-03-02T19:16:32.222Z,1.50
2023-03-02T19:19:19.930Z,1.40
2023-03-02T19:22:07.232Z,1.60
2023-03-02T19:24:53.759Z,1.70
2023-03-02T19:27:40.228Z,1.80
2023-03-02T19:30:27.809Z,1.90
2023-03-02T19:33:14.460Z,2.00
2023-03-02T19:36:02.377Z,2.10
2023-03-02T19:38:48.948Z,1.90
2023-03-02T19:41:35.709Z,2.00
2023-03-02T19:44:22.436Z,1.90
2023-03-02T19:47:08.694Z,1.80
2023-03-02T19:49:55.068Z,1.90
2023-03-02T19:52:43.000Z,1.90
2023-03-02T19:55:29.621Z,2.00
2023-03-02T19:58:17.557Z,2.10
2023-03-02T20:01:04.849Z,2.20
2023-03-02T20:03:52.512Z,2.30
2023-03-02T20:06:38.992Z,2.10
2023-03-02T20:09:27.767Z,1.90
2023-03-02T20:12:14.389Z,2.00
2023-03-02T20:15:00.734Z,1.90
2023-03-02T20:17:47.158Z,1.90
2023-03-02T20:20:33.477Z,1.80
2023-03-02T20:23:20.134Z,1.70
2023-03-02T20:26:08.563Z,1.50
2023-03-02T20:28:56.524Z,1.30
2023-03-02T20:31:43.196Z,1.30
2023-03-02T20:34:30.129Z,1.50
2023-03-02T20:37:16.819Z,1.50
2023-03-02T20:40:04.256Z,1.70
2023-03-02T20:42:53.139Z,1.80
2023-03-02T20:45:40.032Z,2.00
2023-03-02T20:48:26.333Z,2.00
2023-03-02T20:51:14.896Z,2.00
2023-03-02T20:54:01.367Z,1.90
2023-03-02T20:56:48.012Z,1.90
2023-03-02T20:59:36.357Z,2.00
2023-03-02T21:02:23.290Z,1.90
2023-03-02T21:05:10.795Z,1.80
2023-03-02T21:07:57.872Z,2.00
2023-03-02T21:10:44.691Z,2.00
2023-03-02T21:13:31.680Z,1.80
2023-03-02T21:16:23.845Z,1.80
2023-03-02T21:19:15.140Z,1.50
2023-03-02T21:22:02.029Z,1.50
2023-03-02T21:24:48.921Z,1.60
2023-03-02T21:27:35.397Z,1.80
2023-03-02T21:30:24.167Z,1.80
2023-03-02T21:33:11.810Z,1.80
2023-03-02T21:35:58.918Z,1.80
2023-03-02T21:38:45.407Z,1.80
2023-03-02T21:41:32.185Z,1.70
2023-03-02T21:44:19.122Z,1.40
2023-03-02T21:47:06.023Z,1.30
2023-03-02T21:49:54.040Z,1.30
2023-03-02T21:52:40.904Z,1.40
2023-03-02T21:55:27.565Z,1.40
2023-03-02T21:58:14.373Z,1.50
2023-03-02T22:01:00.837Z,1.50
2023-03-02T22:03:47.321Z,1.30
2023-03-02T22:06:37.550Z,1.00
2023-03-02T22:09:25.909Z,1.00
2023-03-02T22:12:14.532Z,0.70
2023-03-02T22:15:04.186Z,0.70
2023-03-02T22:17:52.336Z,0.60
2023-03-02T22:20:40.124Z,0.60
2023-03-02T22:23:28.538Z,0.90
2023-03-02T22:26:17.537Z,1.10
2023-03-02T22:29:13.518Z,1.00
2023-03-02T22:32:16.453Z,1.00
2023-03-02T22:35:14.869Z,1.10
2023-03-02T22:38:09.886Z,1.30
2023-03-02T22:40:58.478Z,1.30
2023-03-02T22:43:45.807Z,1.40
2023-03-02T22:46:32.384Z,1.30
2023-03-02T22:49:18.980Z,1.40
2023-03-02T22:52:14.007Z,1.20
2023-03-02T22:55:00.506Z,1.10
2023-03-02T22:57:48.228Z,1.00
2023-03-02T23:00:38.390Z,1.00
2023-03-02T23:03:29.044Z,1.00
2023-03-02T23:06:28.290Z,1.10
2023-03-02T23:09:16.832Z,1.20
2023-03-02T23:12:13.431Z,1.20
2023-03-02T23:15:01.686Z,1.10
2023-03-02T23:17:48.345Z,1.30
2023-03-02T23:20:35.124Z,1.40
2023-03-02T23:23:25.153Z,1.40
2023-03-02T23:26:13.603Z,1.30
2023-03-02T23:29:00.276Z,1.40
2023-03-02T23:31:48.485Z,1.30
2023-03-02T23:34:34.910Z,1.40
2023-03-02T23:37:21.197Z,1.40
2023-03-02T23:40:09.114Z,1.40
2023-03-02T23:42:56.248Z,1.10
2023-03-02T23:45:42.903Z,1.00
2023-03-02T23:48:30.483Z,0.80
2023-03-02T23:51:17.351Z,0.60
2023-03-02T23:54:04.807Z,0.40
2023-03-02T23:56:51.314Z,0.20
2023-03-02T23:59:37.873Z,0.30
